createdAt,value
2022-11-08T00:03:00.376Z,100122.63
2022-11-08T00:06:21.433Z,100112.44
2022-11-08T00:09:42.145Z,100117.50
2022-11-08T00:13:03.173Z,100116.97
2022-11-08T00:16:08.744Z,100110.66
2022-11-08T00:19:12.463Z,100114.19
2022-11-08T00:22:16.764Z,100109.41
2022-11-08T00:25:20.393Z,100109.69
2022-11-08T00:28:24.023Z,100114.97
2022-11-08T00:31:29.661Z,100115.00
2022-11-08T00:34:34.463Z,100112.53
2022-11-08T00:37:38.093Z,100111.41
2022-11-08T00:40:41.697Z,100109.22
2022-11-08T00:43:45.736Z,100111.91
2022-11-08T00:46:50.927Z,100107.72
2022-11-08T00:49:54.834Z,100107.63
2022-11-08T00:52:58.479Z,100098.25
2022-11-08T00:56:02.862Z,100098.09
2022-11-08T00:59:06.787Z,100093.78
2022-11-08T01:02:11.972Z,100089.88
2022-11-08T01:05:15.905Z,100082.47
2022-11-08T01:08:20.752Z,100083.38
2022-11-08T01:11:26.287Z,100081.38
2022-11-08T01:14:30.016Z,100068.94
2022-11-08T01:17:35.229Z,100059.16
2022-11-08T01:20:40.306Z,100061.78
2022-11-08T01:24:00.805Z,100061.69
2022-11-08T01:27:13.624Z,100055.00
2022-11-08T01:30:17.623Z,100055.53
2022-11-08T01:33:22.891Z,100050.78
2022-11-08T01:36:28.453Z,100056.66
2022-11-08T01:39:33.192Z,100048.97
2022-11-08T01:42:37.153Z,100044.03
2022-11-08T01:46:26.323Z,100038.59
2022-11-08T01:49:39.805Z,100040.25
2022-11-08T01:52:47.625Z,100035.66
2022-11-08T01:55:51.956Z,100041.78
2022-11-08T01:58:59.454Z,100041.34
2022-11-08T02:02:03.800Z,100042.78
2022-11-08T02:05:25.207Z,100045.28
2022-11-08T02:08:33.046Z,100035.84
2022-11-08T02:11:37.520Z,100042.66
2022-11-08T02:14:41.130Z,100042.72
2022-11-08T02:17:44.665Z,100046.56
2022-11-08T02:20:56.720Z,100047.13
2022-11-08T02:24:03.069Z,100046.44
2022-11-08T02:27:06.609Z,100047.63
2022-11-08T02:30:11.509Z,100045.31
2022-11-08T02:33:19.444Z,100049.09
2022-11-08T02:36:26.054Z,100051.59
2022-11-08T02:39:33.086Z,100063.25
2022-11-08T02:42:39.962Z,100065.50
2022-11-08T02:45:43.616Z,100063.34
2022-11-08T02:48:47.359Z,100063.22
2022-11-08T02:51:54.094Z,100062.25
2022-11-08T02:54:59.254Z,100064.00
2022-11-08T02:58:03.233Z,100059.56
2022-11-08T03:01:07.165Z,100058.59
2022-11-08T03:04:10.889Z,100053.69
2022-11-08T03:07:14.532Z,100057.63
2022-11-08T03:10:19.843Z,100054.00
2022-11-08T03:13:23.290Z,100055.69
2022-11-08T03:16:27.113Z,100055.91
2022-11-08T03:19:30.721Z,100051.72
2022-11-08T03:22:34.382Z,100054.59
2022-11-08T03:25:39.642Z,100064.13
2022-11-08T03:28:43.981Z,100057.88
2022-11-08T03:31:47.682Z,100063.84
2022-11-08T03:34:51.246Z,100062.56
2022-11-08T03:37:56.513Z,100074.03
2022-11-08T03:41:01.529Z,100069.28
2022-11-08T03:44:05.205Z,100064.31
2022-11-08T03:47:08.726Z,100059.53
2022-11-08T03:50:13.741Z,100058.56
2022-11-08T03:53:17.412Z,100053.84
2022-11-08T03:56:22.462Z,100040.47
2022-11-08T03:59:26.145Z,100037.00
2022-11-08T04:02:29.677Z,100039.25
2022-11-08T04:05:33.807Z,100036.22
2022-11-08T04:08:37.310Z,100038.56
2022-11-08T04:11:59.482Z,100043.03
2022-11-08T04:15:19.854Z,100043.47
2022-11-08T04:18:41.357Z,100048.22
2022-11-08T04:21:45.945Z,100057.97
2022-11-08T04:24:49.642Z,100044.88
2022-11-08T04:27:54.703Z,100053.84
2022-11-08T04:31:00.091Z,100050.22
2022-11-08T04:34:04.292Z,100054.22
2022-11-08T04:37:07.878Z,100061.97
2022-11-08T04:40:13.052Z,100064.50
2022-11-08T04:43:18.296Z,100073.41
2022-11-08T04:46:23.933Z,100070.13
2022-11-08T04:49:27.702Z,100064.97
2022-11-08T04:52:31.485Z,100061.50
2022-11-08T04:55:37.272Z,100074.63
2022-11-08T04:58:44.052Z,100085.53
2022-11-08T05:01:47.761Z,100077.22
2022-11-08T05:04:51.473Z,100089.03
2022-11-08T05:07:55.722Z,100088.63
2022-11-08T05:11:03.725Z,100086.69
2022-11-08T05:14:08.912Z,100088.66
2022-11-08T05:17:12.639Z,100109.19
2022-11-08T05:20:33.611Z,100103.91
2022-11-08T05:23:37.332Z,100088.75
2022-11-08T05:26:43.834Z,100100.78
2022-11-08T05:29:49.022Z,100101.06
2022-11-08T05:32:53.342Z,100101.25
2022-11-08T05:35:57.076Z,100104.06
2022-11-08T05:39:00.911Z,100099.97
2022-11-08T05:42:05.875Z,100096.00
2022-11-08T05:45:11.802Z,100097.66
2022-11-08T05:48:15.769Z,100108.38
2022-11-08T05:51:23.202Z,100111.03
2022-11-08T05:54:26.932Z,100112.44
2022-11-08T05:57:30.644Z,100111.84
2022-11-08T06:00:35.863Z,100117.66
2022-11-08T06:03:40.171Z,100120.47
2022-11-08T06:06:43.842Z,100122.81
2022-11-08T06:09:47.563Z,100125.72
2022-11-08T06:12:51.562Z,100124.34
2022-11-08T06:15:56.745Z,100127.28
2022-11-08T06:19:00.483Z,100125.47
2022-11-08T06:22:04.233Z,100124.09
2022-11-08T06:25:08.382Z,100128.53
2022-11-08T06:28:13.382Z,100133.78
2022-11-08T06:31:18.552Z,100148.41
2022-11-08T06:34:22.370Z,100139.56
2022-11-08T06:37:26.054Z,100133.84
2022-11-08T06:40:29.775Z,100134.88
2022-11-08T06:43:33.482Z,100132.81
2022-11-08T06:46:38.542Z,100137.56
2022-11-08T06:49:42.302Z,100135.84
2022-11-08T06:52:45.962Z,100138.09
2022-11-08T06:55:49.623Z,100145.84
2022-11-08T06:58:53.334Z,100140.09
2022-11-08T07:01:58.745Z,100149.16
2022-11-08T07:05:02.452Z,100143.06
2022-11-08T07:08:06.764Z,100139.47
2022-11-08T07:11:11.241Z,100139.34
2022-11-08T07:14:14.889Z,100140.34
2022-11-08T07:17:20.092Z,100147.94
2022-11-08T07:20:23.792Z,100147.25
2022-11-08T07:23:27.513Z,100147.47
2022-11-08T07:26:31.338Z,100142.44
2022-11-08T07:29:35.103Z,100140.09
2022-11-08T07:32:40.264Z,100142.03
2022-11-08T07:35:47.976Z,100146.22
2022-11-08T07:38:53.243Z,100148.63
2022-11-08T07:41:57.103Z,100147.53
2022-11-08T07:45:03.492Z,100135.97
2022-11-08T07:48:14.720Z,100138.03
2022-11-08T07:51:18.482Z,100137.78
2022-11-08T07:54:22.212Z,100131.56
2022-11-08T07:57:25.972Z,100139.47
2022-11-08T08:00:29.734Z,100130.56
2022-11-08T08:03:35.207Z,100140.91
2022-11-08T08:06:38.902Z,100130.31
2022-11-08T08:09:42.623Z,100136.31
2022-11-08T08:12:47.573Z,100139.31
2022-11-08T08:15:51.382Z,100143.47
2022-11-08T08:18:56.987Z,100141.69
2022-11-08T08:22:04.092Z,100137.72
2022-11-08T08:25:11.171Z,100137.28
2022-11-08T08:28:15.182Z,100140.38
2022-11-08T08:31:22.252Z,100136.19
2022-11-08T08:34:27.315Z,100139.22
2022-11-08T08:37:31.083Z,100139.09
2022-11-08T08:40:35.162Z,100137.38
2022-11-08T08:43:39.002Z,100132.69
2022-11-08T08:46:42.672Z,100138.44
2022-11-08T08:49:47.850Z,100139.47
2022-11-08T08:52:51.611Z,100135.50
2022-11-08T08:55:55.374Z,100134.56
2022-11-08T09:02:22.783Z,100129.84
2022-11-08T09:05:27.992Z,100139.78
2022-11-08T09:08:32.093Z,100137.06
2022-11-08T09:11:35.942Z,100136.81
2022-11-08T09:14:39.694Z,100131.13
2022-11-08T09:17:43.672Z,100127.88
2022-11-08T09:20:48.982Z,100138.91
2022-11-08T09:23:52.761Z,100129.81
2022-11-08T09:26:56.462Z,100132.78
2022-11-08T09:30:00.554Z,100123.38
2022-11-08T09:33:04.399Z,100131.22
2022-11-08T09:36:13.901Z,100130.41
2022-11-08T09:39:17.802Z,100122.06
2022-11-08T09:42:51.156Z,100117.09
2022-11-08T09:45:57.589Z,100113.38
2022-11-08T09:49:04.691Z,100113.25
2022-11-08T09:52:15.499Z,100111.81
2022-11-08T09:55:26.153Z,100115.22
2022-11-08T09:58:36.092Z,100110.75
2022-11-08T10:01:40.366Z,100116.94
2022-11-08T10:04:44.352Z,100106.94
2022-11-08T10:07:55.772Z,100103.84
2022-11-08T10:11:27.941Z,100108.56
2022-11-08T10:14:53.833Z,100100.75
2022-11-08T10:18:17.101Z,100105.56
2022-11-08T10:21:53.482Z,100102.25
2022-11-08T10:25:02.684Z,100099.50
2022-11-08T10:28:08.663Z,100096.31
2022-11-08T10:31:14.752Z,100094.19
2022-11-08T10:34:21.759Z,100096.94
2022-11-08T10:37:28.452Z,100094.66
2022-11-08T10:40:44.392Z,100095.63
2022-11-08T10:43:53.670Z,100091.72
2022-11-08T10:47:07.304Z,100086.25
2022-11-08T10:50:17.358Z,100080.09
2022-11-08T10:53:26.263Z,100076.72
2022-11-08T10:56:34.205Z,100076.00
2022-11-08T10:59:41.735Z,100067.81
2022-11-08T11:02:46.732Z,100061.69
2022-11-08T11:06:00.250Z,100061.91
2022-11-08T11:09:06.610Z,100055.50
2022-11-08T11:12:15.132Z,100046.91
2022-11-08T11:15:19.512Z,100047.72
2022-11-08T11:18:28.994Z,100045.75
2022-11-08T11:21:37.922Z,100039.22
2022-11-08T11:24:51.704Z,100039.41
2022-11-08T11:28:00.094Z,100038.00
2022-11-08T11:31:06.324Z,100041.66
2022-11-08T11:34:37.553Z,100041.69
2022-11-08T11:37:45.263Z,100034.91
2022-11-08T11:40:50.099Z,100036.34
2022-11-08T11:44:07.764Z,100035.50
2022-11-08T11:47:18.953Z,100031.81
2022-11-08T11:50:35.542Z,100026.47
2022-11-08T11:53:44.616Z,100030.38
2022-11-08T11:56:58.161Z,100018.81
2022-11-08T12:00:07.246Z,100021.66
2022-11-08T12:03:47.233Z,100022.91
2022-11-08T12:07:04.904Z,100018.59
2022-11-08T12:10:20.883Z,100021.63
2022-11-08T12:13:31.204Z,100016.69
2022-11-08T12:16:43.588Z,100010.72
2022-11-08T12:20:07.478Z,100022.06
2022-11-08T12:23:38.829Z,100007.97
2022-11-08T12:26:52.558Z,100006.28
2022-11-08T12:30:04.693Z,100012.22
2022-11-08T12:33:33.778Z,100007.34
2022-11-08T12:36:45.369Z,100017.94
2022-11-08T12:39:56.310Z,100015.09
2022-11-08T12:43:11.676Z,100016.78
2022-11-08T12:46:18.688Z,100009.38
2022-11-08T12:49:34.701Z,100015.09
2022-11-08T12:52:53.069Z,100011.81
2022-11-08T12:55:59.757Z,100010.81
2022-11-08T12:59:06.059Z,100006.13
2022-11-08T13:02:19.349Z,100006.75
2022-11-08T13:05:28.607Z,100005.25
2022-11-08T13:08:42.228Z,100013.84
2022-11-08T13:11:53.948Z,100013.91
2022-11-08T13:15:00.427Z,100002.66
2022-11-08T13:18:34.508Z,100007.50
2022-11-08T13:21:42.393Z,100001.72
2022-11-08T13:24:46.216Z,99993.19
2022-11-08T13:27:50.617Z,100001.81
2022-11-08T13:31:02.728Z,100007.25
2022-11-08T13:34:19.070Z,100001.88
2022-11-08T13:37:38.685Z,100012.50
2022-11-08T13:41:02.868Z,100007.41
2022-11-08T13:44:45.128Z,100001.22
2022-11-08T13:47:57.149Z,100011.28
2022-11-08T13:51:30.739Z,100001.28
2022-11-08T13:54:53.798Z,100006.19
2022-11-08T13:58:00.397Z,100007.50
2022-11-08T14:01:06.676Z,100008.59
2022-11-08T14:04:26.288Z,100006.97
2022-11-08T14:07:39.208Z,100012.84
2022-11-08T14:11:05.267Z,100012.97
2022-11-08T14:14:31.219Z,100009.28
2022-11-08T14:17:47.070Z,100011.22
2022-11-08T14:20:51.074Z,100012.09
2022-11-08T14:23:55.178Z,100013.19
2022-11-08T14:27:00.709Z,100016.78
2022-11-08T14:30:06.209Z,100013.69
2022-11-08T14:33:18.640Z,100016.16
2022-11-08T14:36:24.230Z,100019.03
2022-11-08T14:39:31.568Z,100021.38
2022-11-08T14:42:36.847Z,100029.09
2022-11-08T14:45:43.959Z,100021.53
2022-11-08T14:48:51.697Z,100024.91
2022-11-08T14:52:16.146Z,100027.03
2022-11-08T14:55:25.355Z,100033.16
2022-11-08T14:58:31.547Z,100029.53
2022-11-08T15:01:36.805Z,100018.97
2022-11-08T15:04:41.891Z,100029.91
2022-11-08T15:07:48.123Z,100031.09
2022-11-08T15:10:58.402Z,100031.75
2022-11-08T15:14:06.727Z,100026.28
2022-11-08T15:17:35.622Z,100028.28
2022-11-08T15:20:39.582Z,100027.34
2022-11-08T15:23:44.903Z,100026.91
2022-11-08T15:27:16.022Z,100025.72
2022-11-08T15:30:22.982Z,100034.38
2022-11-08T15:33:28.928Z,100041.38
2022-11-08T15:36:36.083Z,100045.50
2022-11-08T15:39:41.934Z,100043.78
2022-11-08T15:42:47.596Z,100050.13
2022-11-08T15:45:55.832Z,100052.09
2022-11-08T15:49:00.832Z,100053.66
2022-11-08T15:52:05.724Z,100057.78
2022-11-08T15:55:10.035Z,100061.72
2022-11-08T15:58:17.628Z,100061.38
2022-11-08T16:01:23.341Z,100065.53
2022-11-08T16:04:28.638Z,100058.19
2022-11-08T16:07:32.443Z,100066.66
2022-11-08T16:10:40.283Z,100069.16
2022-11-08T16:13:44.135Z,100063.47
2022-11-08T16:16:49.293Z,100065.00
2022-11-08T16:19:52.983Z,100067.63
2022-11-08T16:22:57.353Z,100076.38
2022-11-08T16:26:03.453Z,100083.22
2022-11-08T16:29:07.183Z,100076.50
2022-11-08T16:32:12.374Z,100084.91
2022-11-08T16:35:16.553Z,100091.66
2022-11-08T16:38:28.545Z,100094.38
2022-11-08T16:41:32.536Z,100090.28
2022-11-08T16:44:40.941Z,100094.28
2022-11-08T16:47:48.962Z,100104.31
2022-11-08T16:50:53.303Z,100104.56
2022-11-08T16:53:57.243Z,100098.09
2022-11-08T16:57:28.519Z,100101.09
2022-11-08T17:00:26.522Z,100104.72
2022-11-08T17:03:31.854Z,100107.69
2022-11-08T17:06:35.732Z,100114.63
2022-11-08T17:09:39.364Z,100110.63
2022-11-08T17:12:43.833Z,100115.69
2022-11-08T17:15:49.396Z,100121.34
2022-11-08T17:18:54.855Z,100123.69
2022-11-08T17:21:59.643Z,100111.53
2022-11-08T17:25:03.853Z,100112.91
2022-11-08T17:28:07.907Z,100117.13
2022-11-08T17:31:13.493Z,100120.97
2022-11-08T17:34:18.882Z,100113.63
2022-11-08T17:37:22.602Z,100116.25
2022-11-08T17:40:26.683Z,100122.78
2022-11-08T17:43:33.536Z,100121.09
2022-11-08T17:46:37.523Z,100120.09
2022-11-08T17:49:44.037Z,100124.75
2022-11-08T17:52:47.953Z,100121.94
2022-11-08T17:55:55.749Z,100126.94
2022-11-08T17:58:59.573Z,100131.50
2022-11-08T18:02:03.579Z,100129.41
2022-11-08T18:05:09.674Z,100135.81
2022-11-08T18:08:13.523Z,100136.50
2022-11-08T18:11:17.274Z,100130.75
2022-11-08T18:14:28.016Z,100137.34
2022-11-08T18:17:32.230Z,100134.69
2022-11-08T18:20:40.004Z,100129.63
2022-11-08T18:23:44.420Z,100134.78
2022-11-08T18:26:48.244Z,100129.47
2022-11-08T18:29:52.013Z,100130.97
2022-11-08T18:32:55.924Z,100133.63
2022-11-08T18:36:06.314Z,100141.19
2022-11-08T18:39:11.321Z,100135.13
2022-11-08T18:42:17.842Z,100146.44
2022-11-08T18:45:21.516Z,100153.34
2022-11-08T18:48:25.253Z,100140.81
2022-11-08T18:51:30.588Z,100143.47
2022-11-08T18:54:37.056Z,100150.22
2022-11-08T18:57:40.985Z,100162.38
2022-11-08T19:00:45.904Z,100162.72
2022-11-08T19:03:49.514Z,100162.72
2022-11-08T19:06:55.113Z,100172.75
2022-11-08T19:09:58.864Z,100176.72
2022-11-08T19:13:02.583Z,100169.59
2022-11-08T19:16:09.453Z,100176.84
2022-11-08T19:19:13.603Z,100180.47
2022-11-08T19:22:18.864Z,100175.69
2022-11-08T19:25:22.554Z,100182.09
2022-11-08T19:28:30.356Z,100180.09
2022-11-08T19:31:36.684Z,100181.53
2022-11-08T19:34:41.457Z,100178.53
2022-11-08T19:37:46.685Z,100184.97
2022-11-08T19:40:50.484Z,100179.50
2022-11-08T19:43:55.269Z,100182.31
2022-11-08T19:46:59.063Z,100184.94
2022-11-08T19:50:02.793Z,100179.22
2022-11-08T19:53:07.852Z,100187.22
2022-11-08T19:56:13.203Z,100187.09
2022-11-08T19:59:17.423Z,100189.09
2022-11-08T20:02:21.203Z,100192.09
2022-11-08T20:05:24.764Z,100188.44
2022-11-08T20:08:30.012Z,100190.94
2022-11-08T20:11:36.499Z,100195.72
2022-11-08T20:14:40.255Z,100194.22
2022-11-08T20:17:44.009Z,100199.09
2022-11-08T20:20:47.747Z,100201.06
2022-11-08T20:23:52.899Z,100205.66
2022-11-08T20:26:57.187Z,100202.03
2022-11-08T20:30:01.257Z,100201.41
2022-11-08T20:33:05.275Z,100214.53
2022-11-08T20:36:11.286Z,100218.53
2022-11-08T20:39:17.128Z,100216.22
2022-11-08T20:42:21.038Z,100219.44
2022-11-08T20:45:24.977Z,100216.06
2022-11-08T20:48:29.472Z,100216.75
2022-11-08T20:51:33.919Z,100219.63
2022-11-08T20:54:43.749Z,100217.25
2022-11-08T20:57:48.007Z,100218.81
2022-11-08T21:00:58.123Z,100221.97
2022-11-08T21:04:02.553Z,100225.34
2022-11-08T21:10:47.923Z,100228.78
2022-11-08T21:13:51.954Z,100236.22
2022-11-08T21:20:19.607Z,100243.28
2022-11-08T21:23:23.318Z,100243.84
2022-11-08T21:26:28.810Z,100248.03
2022-11-08T21:29:32.587Z,100253.75
2022-11-08T21:32:36.299Z,100247.34
2022-11-08T21:35:40.558Z,100248.38
2022-11-08T21:38:44.217Z,100252.94
2022-11-08T21:41:49.318Z,100250.69
2022-11-08T21:44:53.011Z,100251.78
2022-11-08T21:47:56.757Z,100255.13
2022-11-08T21:51:04.917Z,100250.50
2022-11-08T21:54:08.835Z,100245.06
2022-11-08T21:57:13.985Z,100245.63
2022-11-08T22:00:18.347Z,100246.53
2022-11-08T22:03:22.077Z,100251.34
2022-11-08T22:06:26.011Z,100236.66
2022-11-08T22:09:29.826Z,100239.00
2022-11-08T22:12:35.529Z,100231.59
2022-11-08T22:15:39.248Z,100232.53
2022-11-08T22:22:07.388Z,100240.81
2022-11-08T22:25:11.095Z,100232.00
2022-11-08T22:28:16.425Z,100234.16
2022-11-08T22:31:20.296Z,100228.47
2022-11-08T22:34:23.980Z,100229.56
2022-11-08T22:37:27.718Z,100225.63
2022-11-08T22:40:31.407Z,100230.41
2022-11-08T22:43:36.567Z,100231.53
2022-11-08T22:46:40.367Z,100227.94
2022-11-08T22:49:45.256Z,100236.63
2022-11-08T22:52:49.949Z,100232.69
2022-11-08T22:55:53.577Z,100235.13
2022-11-08T22:58:58.648Z,100232.81
2022-11-08T23:02:02.418Z,100237.41
2022-11-08T23:05:06.446Z,100236.75
2022-11-08T23:08:10.298Z,100233.06
2022-11-08T23:11:31.407Z,100234.69
2022-11-08T23:14:53.570Z,100240.09
2022-11-08T23:17:57.677Z,100235.28
2022-11-08T23:21:18.648Z,100236.56
2022-11-08T23:24:22.268Z,100233.50
2022-11-08T23:27:43.868Z,100234.03
2022-11-08T23:31:06.320Z,100233.19
2022-11-08T23:34:09.968Z,100235.19
2022-11-08T23:37:13.770Z,100233.09
2022-11-08T23:40:36.816Z,100237.28
2022-11-08T23:43:57.907Z,100240.66
2022-11-08T23:47:03.199Z,100240.13
2022-11-08T23:50:07.874Z,100247.38
2022-11-08T23:53:11.557Z,100249.16
2022-11-08T23:56:23.631Z,100242.97
2022-11-08T23:59:27.288Z,100256.66
